Time;durP1;ratioP1;P1;durP2;ratioP2;P2;SDS_P1;SDS_P2;PMS_P1;PMS_P2;Temp;Humidity;BMP_temperature;BMP_pressure;BME280_temperature;BME280_humidity;BME280_pressure;Samples;Min_cycle;Max_cycle;Signal;HPM_P1;HPM_P2
2022/11/10 00:00:57;;;;;;;3.05;0.63;;;11.00;99.90;;;;;;5095399;28;20044;-74
2022/11/10 00:03:27;;;;;;;1.00;0.60;;;11.10;99.90;;;;;;5078771;28;20209;-75
2022/11/10 00:05:55;;;;;;;1.25;0.43;;;11.00;99.90;;;;;;5088877;28;20044;-75
2022/11/10 00:08:23;;;;;;;1.70;0.38;;;11.00;99.90;;;;;;5081252;28;20032;-74
2022/11/10 00:11:00;;;;;;;4.85;0.77;;;10.90;99.90;;;;;;5081357;28;20125;-75
2022/11/10 00:13:34;;;;;;;5.93;0.98;;;10.80;99.90;;;;;;5088095;28;20047;-75
2022/11/10 00:18:48;;;;;;;1.88;0.50;;;10.90;99.90;;;;;;5068579;28;20408;-75
2022/11/10 00:21:16;;;;;;;2.08;0.88;;;11.00;99.90;;;;;;5056735;28;20093;-71
2022/11/10 00:23:42;;;;;;;5.03;0.95;;;10.90;99.90;;;;;;5073518;28;20127;-73
2022/11/10 00:26:14;;;;;;;2.67;0.93;;;10.90;99.90;;;;;;5076147;28;20175;-66
2022/11/10 00:28:39;;;;;;;3.85;0.80;;;10.90;99.90;;;;;;5076594;28;20044;-66
2022/11/10 00:31:06;;;;;;;5.82;0.82;;;10.80;99.90;;;;;;5076539;28;20048;-66
2022/11/10 00:33:36;;;;;;;3.90;0.75;;;10.70;99.90;;;;;;5090869;28;20032;-65
2022/11/10 00:36:03;;;;;;;3.85;0.70;;;10.70;99.90;;;;;;5079865;28;20040;-66
2022/11/10 00:38:29;;;;;;;3.75;0.90;;;10.70;99.90;;;;;;5075980;28;20052;-65
2022/11/10 00:40:56;;;;;;;4.20;0.77;;;10.70;99.90;;;;;;5083476;28;20043;-75
2022/11/10 00:43:22;;;;;;;2.58;0.73;;;10.70;99.90;;;;;;5086875;28;20158;-65
2022/11/10 00:45:48;;;;;;;2.15;0.70;;;10.60;99.90;;;;;;5090500;28;20131;-66
2022/11/10 00:48:13;;;;;;;4.97;1.25;;;10.50;99.90;;;;;;5095733;28;20055;-65
2022/11/10 00:50:39;;;;;;;5.70;1.10;;;10.40;99.90;;;;;;5094694;28;20043;-66
2022/11/10 00:53:05;;;;;;;4.53;1.30;;;10.40;99.90;;;;;;5082808;28;20072;-65
2022/11/10 00:55:31;;;;;;;2.75;1.48;;;10.50;99.90;;;;;;5085557;28;20431;-69
2022/11/10 00:57:56;;;;;;;6.22;1.10;;;10.40;99.90;;;;;;5095507;28;20048;-65
2022/11/10 01:00:22;;;;;;;3.00;0.90;;;10.40;99.90;;;;;;5094361;28;20047;-66
2022/11/10 01:02:48;;;;;;;1.75;0.70;;;10.50;99.90;;;;;;5095462;28;20036;-66
2022/11/10 01:05:14;;;;;;;3.42;1.23;;;10.50;99.90;;;;;;5088029;28;20044;-65
2022/11/10 01:07:39;;;;;;;5.85;1.60;;;10.50;99.90;;;;;;5075449;28;20036;-66
2022/11/10 01:10:06;;;;;;;4.15;1.00;;;10.50;99.90;;;;;;5076654;28;20509;-65
2022/11/10 01:12:32;;;;;;;5.88;1.35;;;10.40;99.90;;;;;;5074282;28;20040;-75
2022/11/10 01:14:57;;;;;;;5.35;0.70;;;10.50;99.90;;;;;;5089694;28;20024;-66
2022/11/10 01:17:24;;;;;;;7.28;0.95;;;10.40;99.90;;;;;;5094206;28;20048;-65
2022/11/10 01:19:49;;;;;;;1.35;0.63;;;10.40;99.90;;;;;;5095204;28;20051;-66
2022/11/10 01:22:15;;;;;;;6.53;1.52;;;10.30;99.90;;;;;;5076023;28;20040;-69
2022/11/10 01:24:41;;;;;;;6.60;1.48;;;10.30;99.90;;;;;;5075313;28;20031;-65
2022/11/10 01:27:07;;;;;;;2.97;0.90;;;10.30;99.90;;;;;;5074496;28;20051;-66
2022/11/10 01:29:32;;;;;;;2.80;0.80;;;10.30;99.90;;;;;;5075441;28;20029;-75
2022/11/10 01:31:58;;;;;;;3.20;0.77;;;10.30;99.90;;;;;;5090158;28;20058;-66
2022/11/10 01:34:24;;;;;;;2.08;0.75;;;10.40;99.90;;;;;;5095144;28;20036;-67
2022/11/10 01:36:50;;;;;;;4.65;0.88;;;10.40;99.90;;;;;;5094821;28;20066;-65
2022/11/10 01:39:16;;;;;;;3.00;0.73;;;10.50;99.90;;;;;;5095178;28;20381;-66
2022/11/10 01:41:41;;;;;;;4.90;0.90;;;10.50;99.90;;;;;;5081286;28;20067;-65
2022/11/10 01:44:22;;;;;;;5.47;1.02;;;10.50;99.90;;;;;;5075503;28;20032;-65
2022/11/10 01:46:48;;;;;;;4.45;0.88;;;10.50;99.90;;;;;;5073667;28;20036;-66
2022/11/10 01:49:18;;;;;;;6.90;0.60;;;10.50;99.90;;;;;;5075032;28;20736;-72
2022/11/10 01:51:48;;;;;;;2.15;0.65;;;10.50;99.90;;;;;;5075557;28;20075;-65
2022/11/10 01:54:21;;;;;;;4.88;0.90;;;10.60;99.90;;;;;;5085898;28;20131;-72
2022/11/10 01:56:50;;;;;;;1.65;0.55;;;10.60;99.90;;;;;;5094647;28;20500;-69
2022/11/10 01:59:24;;;;;;;6.20;1.00;;;10.60;99.90;;;;;;5094031;28;20058;-69
2022/11/10 02:01:54;;;;;;;4.15;0.90;;;10.60;99.90;;;;;;5087069;28;20080;-65
2022/11/10 02:04:20;;;;;;;4.97;0.95;;;10.70;99.90;;;;;;5106741;28;20127;-72
2022/11/10 02:06:48;;;;;;;5.78;1.70;;;10.70;99.90;;;;;;5074669;28;20044;-68
2022/11/10 02:09:14;;;;;;;6.28;1.27;;;10.60;99.90;;;;;;5074819;28;20500;-67
2022/11/10 02:11:42;;;;;;;3.45;0.63;;;10.60;99.90;;;;;;5074273;28;20111;-66
2022/11/10 02:14:08;;;;;;;5.95;0.70;;;10.70;99.90;;;;;;5083881;28;20036;-75
2022/11/10 02:16:35;;;;;;;1.60;0.45;;;10.70;99.90;;;;;;5074420;28;20101;-68
2022/11/10 02:19:21;;;;;;;5.03;0.77;;;10.70;99.90;;;;;;5093250;28;20074;-65
2022/11/10 02:21:46;;;;;;;6.50;1.05;;;10.70;99.90;;;;;;5094105;28;20121;-66
2022/11/10 02:24:13;;;;;;;4.75;0.82;;;10.60;99.90;;;;;;5080456;28;20456;-75
2022/11/10 02:26:47;;;;;;;5.72;1.17;;;10.70;99.90;;;;;;5090757;28;20065;-69
2022/11/10 02:29:14;;;;;;;3.53;0.70;;;10.60;99.90;;;;;;5094111;28;20035;-65
2022/11/10 02:31:40;;;;;;;2.40;0.75;;;10.70;99.90;;;;;;5092844;28;20031;-66
2022/11/10 02:34:06;;;;;;;5.32;0.90;;;10.70;99.90;;;;;;5081565;28;20036;-70
2022/11/10 02:36:32;;;;;;;5.53;0.98;;;10.70;99.90;;;;;;5088095;28;20132;-65
2022/11/10 02:38:58;;;;;;;3.72;0.70;;;10.70;99.90;;;;;;5094447;28;20035;-66
2022/11/10 02:41:24;;;;;;;5.13;0.98;;;10.70;99.90;;;;;;5092360;28;20040;-66
2022/11/10 02:43:51;;;;;;;6.75;0.80;;;10.70;99.90;;;;;;5083584;28;20043;-66
2022/11/10 02:46:17;;;;;;;9.05;1.00;;;10.70;99.90;;;;;;5073956;28;20040;-66
2022/11/10 02:48:42;;;;;;;4.82;1.00;;;10.70;99.90;;;;;;5078252;28;20052;-65
2022/11/10 02:51:08;;;;;;;7.72;1.10;;;10.50;99.90;;;;;;5083030;28;20037;-66
2022/11/10 02:53:34;;;;;;;3.60;0.90;;;10.60;99.90;;;;;;5080279;28;20427;-66
2022/11/10 02:56:03;;;;;;;3.90;0.85;;;10.60;99.90;;;;;;5073802;28;20067;-65
2022/11/10 02:58:28;;;;;;;3.50;0.82;;;10.50;99.90;;;;;;5074861;28;20580;-75
2022/11/10 03:00:54;;;;;;;5.13;0.90;;;10.50;99.90;;;;;;5074663;28;20029;-65
2022/11/10 03:03:20;;;;;;;3.70;1.13;;;10.50;99.90;;;;;;5074732;28;20032;-69
2022/11/10 03:05:46;;;;;;;3.15;0.73;;;10.60;99.90;;;;;;5074888;28;20067;-69
2022/11/10 03:08:11;;;;;;;2.50;0.70;;;10.50;99.90;;;;;;5078522;28;20032;-65
2022/11/10 03:10:37;;;;;;;6.00;1.50;;;10.50;99.90;;;;;;5075903;28;20365;-66
2022/11/10 03:13:03;;;;;;;1.73;0.63;;;10.50;99.90;;;;;;5074536;28;20048;-73
2022/11/10 03:15:29;;;;;;;4.03;0.90;;;10.60;99.90;;;;;;5087294;28;20029;-65
2022/11/10 03:17:55;;;;;;;2.90;0.80;;;10.50;99.90;;;;;;5092872;28;20495;-74
2022/11/10 03:20:21;;;;;;;2.53;1.00;;;10.50;99.90;;;;;;5086119;28;20044;-66
2022/11/10 03:22:47;;;;;;;6.13;1.10;;;10.40;99.90;;;;;;5073550;28;20044;-68
2022/11/10 03:25:13;;;;;;;3.90;1.55;;;10.30;99.90;;;;;;5074885;28;20119;-75
2022/11/10 03:27:39;;;;;;;4.55;0.70;;;10.30;99.90;;;;;;5082924;28;20468;-65
2022/11/10 03:30:06;;;;;;;6.60;0.90;;;10.30;99.90;;;;;;5085276;28;20119;-75
2022/11/10 03:32:32;;;;;;;2.15;0.60;;;10.20;99.90;;;;;;5092180;28;20035;-72
2022/11/10 03:34:58;;;;;;;4.85;1.13;;;10.30;99.90;;;;;;5081741;28;20032;-65
2022/11/10 03:37:24;;;;;;;5.50;0.80;;;10.20;99.90;;;;;;5073309;28;20063;-65
2022/11/10 03:39:49;;;;;;;3.65;0.80;;;10.10;99.90;;;;;;5074680;28;20039;-75
2022/11/10 03:42:15;;;;;;;1.95;0.68;;;9.80;99.90;;;;;;5072118;28;20056;-65
2022/11/10 03:44:41;;;;;;;6.80;0.80;;;9.60;99.90;;;;;;5079588;28;20092;-74
2022/11/10 03:47:07;;;;;;;4.68;0.90;;;9.40;99.90;;;;;;5079424;28;20119;-75
2022/11/10 03:49:33;;;;;;;4.65;0.63;;;9.50;99.90;;;;;;5075289;28;20047;-66
2022/11/10 03:51:59;;;;;;;5.05;0.90;;;9.60;99.90;;;;;;5077420;28;20152;-66
2022/11/10 03:54:25;;;;;;;5.93;0.80;;;9.60;99.90;;;;;;5085760;28;20487;-67
2022/11/10 03:56:50;;;;;;;2.90;0.70;;;9.60;99.90;;;;;;5096897;28;20399;-66
2022/11/10 03:59:16;;;;;;;4.85;1.10;;;9.50;99.90;;;;;;5097083;28;20122;-70
2022/11/10 04:01:42;;;;;;;5.88;1.08;;;9.60;99.90;;;;;;5093070;28;20403;-65
2022/11/10 04:08:57;;;;;;;6.22;0.88;;;9.60;99.90;;;;;;5097497;28;20116;-67
2022/11/10 04:09:39;;;;;;;4.03;1.33;;;9.80;99.90;;;;;;5096374;28;20068;-66
2022/11/10 04:17:33;;;;;;;5.80;0.60;;;9.70;99.90;;;;;;5056575;28;20071;-65
2022/11/10 04:20:01;;;;;;;3.78;1.15;;;9.70;99.90;;;;;;5065447;28;20499;-66
2022/11/10 04:23:27;;;;;;;3.22;0.90;;;9.70;99.90;;;;;;5095406;28;20403;-67
2022/11/10 04:25:21;;;;;;;4.07;1.02;;;9.70;99.90;;;;;;5087039;28;20499;-66
2022/11/10 04:27:47;;;;;;;5.88;1.48;;;9.70;99.90;;;;;;5080395;28;20039;-74
2022/11/10 04:30:13;;;;;;;2.28;0.63;;;9.70;99.90;;;;;;5068242;28;20040;-75
2022/11/10 04:32:39;;;;;;;5.10;0.95;;;9.70;99.90;;;;;;5091952;28;20486;-75
2022/11/10 04:35:04;;;;;;;4.53;0.82;;;9.70;99.90;;;;;;5096378;28;20044;-75
2022/11/10 04:37:30;;;;;;;6.45;0.85;;;9.70;99.90;;;;;;5096357;28;20044;-66
2022/11/10 04:39:56;;;;;;;6.35;1.35;;;9.80;99.90;;;;;;5093960;28;20043;-65
2022/11/10 04:42:22;;;;;;;4.03;1.20;;;9.80;99.90;;;;;;5056586;28;20069;-65
2022/11/10 04:44:47;;;;;;;2.65;0.60;;;9.70;99.90;;;;;;5063597;28;20032;-66
2022/11/10 04:47:13;;;;;;;4.78;0.95;;;9.60;99.90;;;;;;5095983;28;20044;-66
2022/11/10 04:49:39;;;;;;;6.88;1.15;;;9.60;99.90;;;;;;5096150;28;20035;-75
2022/11/10 04:52:05;;;;;;;4.78;0.85;;;9.70;99.90;;;;;;5077092;28;20041;-65
2022/11/10 04:54:30;;;;;;;3.42;0.68;;;9.60;99.90;;;;;;5077149;28;20024;-65
2022/11/10 04:56:56;;;;;;;2.33;0.77;;;9.60;99.90;;;;;;5076029;28;20139;-66
2022/11/10 04:59:22;;;;;;;2.60;0.85;;;9.60;99.90;;;;;;5091772;28;20039;-65
2022/11/10 05:01:48;;;;;;;4.70;1.02;;;9.50;99.90;;;;;;5080647;28;20050;-66
2022/11/10 05:04:13;;;;;;;3.10;0.73;;;9.50;99.90;;;;;;5087204;28;20036;-66
2022/11/10 05:06:39;;;;;;;10.32;1.17;;;9.50;99.90;;;;;;5093715;28;20109;-65
2022/11/10 05:09:05;;;;;;;7.72;1.33;;;9.40;99.90;;;;;;5096195;28;20510;-65
2022/11/10 05:11:31;;;;;;;6.35;1.40;;;9.30;99.90;;;;;;5087085;28;20133;-65
2022/11/10 05:13:57;;;;;;;3.53;0.88;;;9.40;99.90;;;;;;5095925;28;20195;-65
2022/11/10 05:16:22;;;;;;;4.53;1.10;;;9.30;99.90;;;;;;5080350;28;20036;-66
2022/11/10 05:18:54;;;;;;;4.63;0.95;;;9.30;99.90;;;;;;5075487;28;20044;-65
2022/11/10 05:21:20;;;;;;;5.18;0.95;;;9.30;99.90;;;;;;5086134;28;20105;-72
2022/11/10 05:23:46;;;;;;;2.47;0.90;;;9.30;99.90;;;;;;5095729;28;20499;-66
2022/11/10 05:26:14;;;;;;;7.03;1.10;;;9.20;99.90;;;;;;5095385;28;20035;-65
2022/11/10 05:28:42;;;;;;;4.03;0.70;;;9.20;99.90;;;;;;5095707;28;20119;-75
2022/11/10 05:31:09;;;;;;;1.88;0.70;;;9.20;99.90;;;;;;5080871;28;20097;-66
2022/11/10 05:33:36;;;;;;;5.78;1.35;;;9.10;99.90;;;;;;5075087;28;20040;-74
2022/11/10 05:36:03;;;;;;;3.33;0.75;;;9.20;99.90;;;;;;5083695;28;20423;-70
2022/11/10 05:38:28;;;;;;;3.75;0.90;;;9.20;99.90;;;;;;5080925;28;20104;-66
2022/11/10 05:40:54;;;;;;;2.15;0.80;;;9.20;99.90;;;;;;5080124;28;20499;-66
2022/11/10 05:43:20;;;;;;;3.28;0.77;;;9.30;99.90;;;;;;5075341;28;20045;-75
2022/11/10 05:45:46;;;;;;;1.48;0.50;;;9.30;99.90;;;;;;5073637;28;20079;-67
2022/11/10 05:48:12;;;;;;;5.45;0.93;;;9.40;99.90;;;;;;5074962;28;20028;-65
2022/11/10 05:50:38;;;;;;;2.40;0.93;;;9.40;99.90;;;;;;5074956;28;20040;-67
2022/11/10 05:53:04;;;;;;;2.47;0.82;;;9.20;99.90;;;;;;5074767;28;20504;-72
2022/11/10 05:55:30;;;;;;;4.40;0.85;;;9.20;99.90;;;;;;5074827;28;20080;-65
2022/11/10 05:57:56;;;;;;;6.15;1.10;;;9.20;99.90;;;;;;5074650;28;20052;-68
2022/11/10 06:00:28;;;;;;;1.45;0.63;;;9.20;99.90;;;;;;5074838;28;20027;-66
2022/11/10 06:02:58;;;;;;;7.03;1.45;;;9.20;99.90;;;;;;5074854;28;20086;-76
2022/11/10 06:05:24;;;;;;;2.53;0.95;;;9.10;99.90;;;;;;5074422;28;20158;-72
2022/11/10 06:07:50;;;;;;;2.95;0.82;;;9.10;99.90;;;;;;5074655;28;20516;-66
2022/11/10 06:10:16;;;;;;;3.08;1.02;;;9.10;99.90;;;;;;5073657;28;20068;-66
2022/11/10 06:12:42;;;;;;;5.25;1.00;;;9.10;99.90;;;;;;5071484;28;20068;-71
2022/11/10 06:15:09;;;;;;;2.85;1.25;;;9.10;99.90;;;;;;5074675;28;20024;-66
2022/11/10 06:17:37;;;;;;;7.07;1.17;;;9.00;99.90;;;;;;5074246;28;20095;-78
2022/11/10 06:20:03;;;;;;;4.32;1.35;;;9.00;99.90;;;;;;5074283;28;20387;-66
2022/11/10 06:22:28;;;;;;;4.07;1.02;;;9.00;99.90;;;;;;5072939;28;20060;-66
2022/11/10 06:24:54;;;;;;;3.08;0.80;;;9.00;99.90;;;;;;5090008;28;20076;-76
2022/11/10 06:27:20;;;;;;;1.95;0.82;;;8.90;99.90;;;;;;5074219;28;20036;-66
2022/11/10 06:29:46;;;;;;;2.65;0.90;;;9.00;99.90;;;;;;5074167;28;20068;-66
2022/11/10 06:32:11;;;;;;;5.25;1.20;;;9.00;99.90;;;;;;5055580;28;20493;-71
2022/11/10 06:34:37;;;;;;;3.65;0.82;;;9.00;99.90;;;;;;5053937;28;20048;-74
2022/11/10 06:37:03;;;;;;;6.00;1.48;;;9.00;99.90;;;;;;5052945;28;20045;-65
2022/11/10 06:39:29;;;;;;;2.05;0.88;;;9.00;99.90;;;;;;5053864;28;20549;-78
2022/11/10 06:41:55;;;;;;;3.78;1.05;;;9.00;99.90;;;;;;5054267;28;20611;-77
2022/11/10 06:44:22;;;;;;;2.17;1.27;;;8.90;99.90;;;;;;5054164;28;20041;-77
2022/11/10 06:46:47;;;;;;;6.05;1.42;;;9.10;99.90;;;;;;5053956;28;20037;-74
2022/11/10 06:49:13;;;;;;;3.35;1.08;;;9.10;99.90;;;;;;5053945;28;20024;-66
2022/11/10 06:51:39;;;;;;;3.85;0.98;;;9.10;99.90;;;;;;5066227;28;20068;-66
2022/11/10 06:54:05;;;;;;;3.85;0.80;;;9.10;99.90;;;;;;5072676;28;20040;-67
2022/11/10 06:56:31;;;;;;;3.60;0.90;;;9.10;99.90;;;;;;5074001;28;20047;-66
2022/11/10 06:58:57;;;;;;;6.20;1.15;;;9.10;99.90;;;;;;5072522;28;20063;-66
2022/11/10 07:01:25;;;;;;;2.47;0.82;;;9.10;99.90;;;;;;5072694;28;20033;-78
2022/11/10 07:03:54;;;;;;;7.13;1.10;;;9.10;99.90;;;;;;5073966;28;20048;-77
2022/11/10 07:06:21;;;;;;;8.40;1.00;;;9.30;99.90;;;;;;5073799;28;20048;-73
2022/11/10 07:08:47;;;;;;;9.57;1.33;;;9.40;99.90;;;;;;5073291;28;20042;-66
2022/11/10 07:11:14;;;;;;;11.05;1.00;;;9.60;99.90;;;;;;5072436;28;20086;-78
2022/11/10 07:13:39;;;;;;;2.67;0.70;;;9.70;99.90;;;;;;5073508;28;20119;-78
2022/11/10 07:16:07;;;;;;;4.75;1.00;;;9.80;99.90;;;;;;5073589;28;20507;-66
2022/11/10 07:18:35;;;;;;;1.75;0.82;;;9.80;99.90;;;;;;5074149;28;20136;-75
2022/11/10 07:21:03;;;;;;;5.55;1.05;;;9.80;99.90;;;;;;5073770;28;20039;-75
2022/11/10 07:23:30;;;;;;;4.53;1.38;;;9.90;99.90;;;;;;5072896;28;20055;-66
2022/11/10 07:25:57;;;;;;;7.43;1.33;;;10.20;99.90;;;;;;5077863;28;20667;-69
2022/11/10 07:28:23;;;;;;;5.35;0.90;;;10.10;99.90;;;;;;5077777;28;20098;-79
2022/11/10 07:30:49;;;;;;;5.25;1.30;;;10.20;99.90;;;;;;5077766;28;20480;-66
2022/11/10 07:33:14;;;;;;;3.88;1.10;;;10.30;99.90;;;;;;5077838;28;20170;-78
2022/11/10 07:35:40;;;;;;;5.97;0.85;;;10.30;99.90;;;;;;5076665;28;20037;-66
2022/11/10 07:38:09;;;;;;;7.18;1.17;;;10.30;99.90;;;;;;5075777;28;20052;-66
2022/11/10 07:40:35;;;;;;;2.55;1.00;;;10.30;99.90;;;;;;5076813;28;20181;-72
2022/11/10 07:43:01;;;;;;;2.50;0.80;;;10.30;99.90;;;;;;5076902;28;20115;-77
2022/11/10 07:45:27;;;;;;;4.40;0.90;;;10.40;99.90;;;;;;5077483;28;20438;-67
2022/11/10 07:48:04;;;;;;;8.25;1.10;;;10.40;99.90;;;;;;5077592;28;20028;-66
2022/11/10 07:50:31;;;;;;;4.57;0.95;;;10.50;99.90;;;;;;5077625;28;20071;-66
2022/11/10 07:53:12;;;;;;;2.33;0.98;;;10.70;99.90;;;;;;5075924;28;20032;-66
2022/11/10 07:55:40;;;;;;;1.60;0.60;;;10.80;99.90;;;;;;5077333;28;20040;-68
2022/11/10 07:58:06;;;;;;;2.70;0.77;;;11.00;99.90;;;;;;5077306;28;20060;-65
2022/11/10 08:00:33;;;;;;;2.90;1.35;;;11.20;99.90;;;;;;5077149;28;20492;-78
2022/11/10 08:03:07;;;;;;;5.05;0.90;;;11.20;99.90;;;;;;5077191;28;20500;-66
2022/11/10 08:05:33;;;;;;;4.78;1.40;;;11.50;99.90;;;;;;5077192;28;20037;-79
2022/11/10 08:07:59;;;;;;;3.88;1.02;;;11.40;99.90;;;;;;5077079;28;20033;-67
2022/11/10 08:10:26;;;;;;;1.85;0.82;;;11.50;99.90;;;;;;5077257;28;20052;-69
2022/11/10 08:12:57;;;;;;;2.28;0.77;;;11.40;99.90;;;;;;5076922;28;20051;-66
2022/11/10 08:15:24;;;;;;;3.20;1.00;;;11.50;99.90;;;;;;5076905;28;20496;-77
2022/11/10 08:17:50;;;;;;;3.78;1.20;;;11.70;99.90;;;;;;5077023;28;20093;-66
2022/11/10 08:20:17;;;;;;;4.68;0.93;;;11.40;99.90;;;;;;5076987;28;20474;-79
2022/11/10 08:22:43;;;;;;;5.30;0.80;;;11.70;99.90;;;;;;5076825;28;20068;-67
2022/11/10 08:25:09;;;;;;;4.10;1.00;;;12.10;99.90;;;;;;5075436;28;20044;-67
2022/11/10 08:27:35;;;;;;;4.03;0.90;;;12.10;99.90;;;;;;5076682;28;20447;-65
2022/11/10 08:30:00;;;;;;;2.92;0.90;;;12.20;99.90;;;;;;5076678;28;20032;-66
2022/11/10 08:32:27;;;;;;;9.82;1.13;;;12.30;99.90;;;;;;5076059;28;20040;-78
2022/11/10 08:34:53;;;;;;;9.35;1.40;;;12.60;99.90;;;;;;5068292;28;20049;-79
2022/11/10 08:37:20;;;;;;;2.17;1.02;;;12.70;99.90;;;;;;5054476;28;20131;-79
2022/11/10 08:39:50;;;;;;;5.38;0.80;;;12.30;99.90;;;;;;5054622;28;20080;-78
2022/11/10 08:42:17;;;;;;;2.72;0.85;;;12.20;99.90;;;;;;5052969;28;20049;-79
2022/11/10 08:44:43;;;;;;;5.57;0.90;;;12.60;99.90;;;;;;5054540;28;20052;-78
2022/11/10 08:47:10;;;;;;;4.22;0.65;;;12.50;99.90;;;;;;5054552;28;20082;-79
2022/11/10 08:49:37;;;;;;;5.60;1.15;;;12.50;99.90;;;;;;5071433;28;20094;-78
2022/11/10 08:52:03;;;;;;;6.40;0.90;;;12.40;99.90;;;;;;5073927;28;20048;-68
2022/11/10 08:54:30;;;;;;;6.95;0.85;;;12.40;99.90;;;;;;5074389;28;20033;-79
2022/11/10 08:56:58;;;;;;;5.20;1.17;;;12.30;99.90;;;;;;5075527;28;20059;-79
2022/11/10 08:59:24;;;;;;;4.22;1.00;;;13.00;99.90;;;;;;5073872;28;20044;-79
2022/11/10 09:01:51;;;;;;;4.90;1.42;;;13.10;99.90;;;;;;5074090;28;20057;-80
2022/11/10 09:04:17;;;;;;;3.42;1.13;;;12.60;99.90;;;;;;5073280;28;20109;-79
2022/11/10 09:06:44;;;;;;;6.88;1.58;;;12.30;99.90;;;;;;5072847;28;20044;-79
2022/11/10 09:09:11;;;;;;;8.57;0.82;;;12.70;99.90;;;;;;5073851;28;20067;-79
2022/11/10 09:11:37;;;;;;;5.63;0.90;;;13.10;99.90;;;;;;5074080;28;20863;-66
2022/11/10 09:14:02;;;;;;;5.05;1.00;;;13.30;99.90;;;;;;5075896;28;20044;-80
2022/11/10 09:16:28;;;;;;;6.95;1.45;;;13.30;99.90;;;;;;5075766;28;20480;-79
2022/11/10 09:18:54;;;;;;;3.25;1.00;;;13.20;99.90;;;;;;5075837;28;20040;-66
2022/11/10 09:21:20;;;;;;;5.57;1.08;;;14.00;99.90;;;;;;5075888;28;20048;-73
2022/11/10 09:23:46;;;;;;;8.52;1.20;;;13.70;99.90;;;;;;5075554;28;20090;-66
2022/11/10 09:26:12;;;;;;;5.03;0.85;;;13.60;99.90;;;;;;5075612;28;20036;-77
2022/11/10 09:28:38;;;;;;;8.20;1.10;;;13.50;99.90;;;;;;5075728;28;20442;-66
2022/11/10 09:31:04;;;;;;;3.17;1.83;;;13.40;99.90;;;;;;5075492;28;20626;-66
2022/11/10 09:33:30;;;;;;;6.15;0.90;;;13.20;99.90;;;;;;5075551;28;20040;-79
2022/11/10 09:35:58;;;;;;;7.43;0.98;;;13.20;99.90;;;;;;5075498;28;20048;-66
2022/11/10 09:38:24;;;;;;;6.63;1.17;;;13.20;99.90;;;;;;5074024;28;20041;-66
2022/11/10 09:41:09;;;;;;;3.08;1.23;;;13.20;99.90;;;;;;5075345;28;20032;-66
2022/11/10 09:44:16;;;;;;;4.78;1.27;;;12.90;99.90;;;;;;5075325;28;20059;-65
2022/11/10 09:47:08;;;;;;;2.28;1.00;;;13.20;99.90;;;;;;5074205;28;20040;-65
2022/11/10 09:49:39;;;;;;;3.10;0.80;;;13.90;99.90;;;;;;5064275;28;20136;-66
2022/11/10 09:52:07;;;;;;;4.85;1.20;;;14.00;99.90;;;;;;5075229;28;20032;-65
2022/11/10 09:55:01;;;;;;;2.35;0.93;;;14.00;99.90;;;;;;5075049;28;20416;-66
2022/11/10 09:57:28;;;;;;;5.80;0.77;;;13.90;99.90;;;;;;5073610;28;20071;-66
2022/11/10 09:59:54;;;;;;;12.25;1.92;;;13.80;99.90;;;;;;5075116;28;20112;-78
2022/11/10 10:02:29;;;;;;;6.53;0.77;;;13.40;99.90;;;;;;5074979;28;20423;-76
2022/11/10 10:05:01;;;;;;;6.90;1.17;;;12.70;99.90;;;;;;5074902;28;20032;-66
2022/11/10 10:07:39;;;;;;;8.52;1.30;;;12.40;99.90;;;;;;5074890;28;20079;-66
2022/11/10 10:10:35;;;;;;;6.60;0.75;;;12.30;99.90;;;;;;5075100;28;20044;-79
2022/11/10 10:13:25;;;;;;;6.18;0.80;;;12.30;99.90;;;;;;5074727;28;20044;-66
2022/11/10 10:16:12;;;;;;;4.10;0.82;;;12.40;99.90;;;;;;5074582;28;20043;-65
2022/11/10 10:18:50;;;;;;;3.72;0.85;;;12.60;99.90;;;;;;5074598;28;20500;-66
2022/11/10 10:21:41;;;;;;;6.00;1.10;;;13.20;99.90;;;;;;5074586;28;20037;-67
2022/11/10 10:24:13;;;;;;;5.95;0.88;;;13.70;99.90;;;;;;5074640;28;20090;-66
2022/11/10 10:26:47;;;;;;;3.05;0.77;;;13.70;99.90;;;;;;5074438;28;20041;-66
2022/11/10 10:29:23;;;;;;;2.67;0.88;;;14.10;99.90;;;;;;5074653;28;20491;-65
2022/11/10 10:31:51;;;;;;;4.30;0.82;;;13.70;99.90;;;;;;5090102;28;20479;-71
2022/11/10 10:34:23;;;;;;;6.65;1.10;;;13.60;99.90;;;;;;5074491;28;20123;-66
2022/11/10 10:36:49;;;;;;;6.53;0.88;;;13.50;99.90;;;;;;5074129;28;20036;-66
2022/11/10 10:39:25;;;;;;;6.30;1.02;;;13.50;99.90;;;;;;5074539;28;20087;-66
2022/11/10 10:41:51;;;;;;;6.00;0.88;;;13.50;99.90;;;;;;5074373;28;20040;-78
2022/11/10 10:44:18;;;;;;;4.40;0.90;;;13.60;99.90;;;;;;5074322;28;20039;-65
2022/11/10 10:46:55;;;;;;;4.68;1.13;;;13.50;99.90;;;;;;5074245;28;20036;-68
2022/11/10 10:49:24;;;;;;;4.07;0.90;;;13.50;99.90;;;;;;5074092;28;20068;-66
2022/11/10 10:52:05;;;;;;;4.10;1.00;;;13.30;99.90;;;;;;5074135;28;20036;-66
2022/11/10 10:54:32;;;;;;;6.22;0.93;;;13.20;99.90;;;;;;5073428;28;20055;-65
2022/11/10 10:57:19;;;;;;;5.30;1.13;;;13.30;99.90;;;;;;5073913;28;20139;-66
2022/11/10 10:59:45;;;;;;;4.22;0.60;;;13.30;99.90;;;;;;5073810;28;20040;-69
2022/11/10 11:02:31;;;;;;;2.33;0.70;;;13.20;99.90;;;;;;5074113;28;20115;-65
2022/11/10 11:05:23;;;;;;;3.75;0.70;;;13.20;99.90;;;;;;5072696;28;20131;-67
2022/11/10 11:07:58;;;;;;;2.33;0.80;;;13.00;99.90;;;;;;5071923;28;20051;-66
2022/11/10 11:10:30;;;;;;;4.75;1.08;;;12.90;99.90;;;;;;5074008;28;20048;-79
2022/11/10 11:13:20;;;;;;;4.97;0.68;;;12.70;99.90;;;;;;5073384;28;20098;-66
2022/11/10 11:16:04;;;;;;;5.22;0.88;;;13.00;99.90;;;;;;5053876;28;20500;-75
2022/11/10 11:18:31;;;;;;;4.35;0.68;;;13.30;99.90;;;;;;5053708;28;20396;-67
2022/11/10 11:21:12;;;;;;;4.78;1.23;;;13.40;99.90;;;;;;5053787;28;20025;-66
2022/11/10 11:24:11;;;;;;;2.95;0.90;;;13.30;99.90;;;;;;5053931;28;20492;-76
2022/11/10 11:26:57;;;;;;;7.15;1.20;;;13.30;99.90;;;;;;5053767;28;20124;-66
2022/11/10 11:29:38;;;;;;;4.82;1.42;;;13.40;99.90;;;;;;5053608;28;20097;-79
2022/11/10 11:32:41;;;;;;;4.85;0.57;;;13.90;99.90;;;;;;5053714;28;20067;-66
2022/11/10 11:35:30;;;;;;;4.60;0.85;;;13.80;99.90;;;;;;5053619;28;20135;-67
2022/11/10 11:38:14;;;;;;;4.25;0.95;;;13.90;99.90;;;;;;5053643;28;20057;-66
2022/11/10 11:41:16;;;;;;;4.40;1.00;;;13.80;99.90;;;;;;5053712;28;20032;-66
2022/11/10 11:43:54;;;;;;;4.75;0.95;;;14.20;99.90;;;;;;5033873;28;20451;-65
2022/11/10 11:46:46;;;;;;;2.58;0.90;;;14.00;99.90;;;;;;5052188;28;20040;-68
2022/11/10 11:49:41;;;;;;;5.05;1.27;;;13.70;99.90;;;;;;5053585;28;20041;-65
2022/11/10 11:52:25;;;;;;;4.82;1.17;;;13.40;99.90;;;;;;5053502;28;20044;-73
2022/11/10 11:55:14;;;;;;;3.60;0.80;;;12.90;99.90;;;;;;5053537;28;20101;-79
2022/11/10 11:58:01;;;;;;;3.85;0.70;;;13.00;99.90;;;;;;5047629;28;20140;-65
2022/11/10 12:00:30;;;;;;;3.15;0.60;;;13.20;99.90;;;;;;5053535;28;20041;-66
2022/11/10 12:03:24;;;;;;;4.18;0.88;;;13.50;99.90;;;;;;5053442;28;20052;-74
2022/11/10 12:06:01;;;;;;;3.65;1.00;;;13.50;99.90;;;;;;5053434;28;20075;-65
2022/11/10 12:08:39;;;;;;;8.30;1.52;;;14.10;99.90;;;;;;5053342;28;20064;-66
2022/11/10 12:11:36;;;;;;;3.72;0.70;;;13.90;99.90;;;;;;5055856;28;20045;-79
2022/11/10 12:14:01;;;;;;;2.47;0.77;;;13.60;99.90;;;;;;5055702;28;20037;-79
2022/11/10 12:16:32;;;;;;;7.88;0.93;;;;;;;;;;5056815;28;20047;-69
2022/11/10 12:19:07;;;;;;;3.97;0.85;;;13.90;99.90;;;;;;5056722;28;20048;-75
2022/11/10 12:21:50;;;;;;;5.45;1.15;;;14.00;99.90;;;;;;5056867;28;20029;-65
2022/11/10 12:24:26;;;;;;;5.28;1.42;;;14.00;99.90;;;;;;5056843;28;20029;-67
2022/11/10 12:26:58;;;;;;;5.47;0.65;;;13.90;99.90;;;;;;5056849;28;20048;-79
2022/11/10 12:29:49;;;;;;;5.65;0.73;;;13.90;99.90;;;;;;5056785;28;20120;-79
2022/11/10 12:32:25;;;;;;;8.38;1.13;;;13.80;99.90;;;;;;5056914;28;20067;-65
2022/11/10 12:34:58;;;;;;;6.00;0.93;;;13.50;99.90;;;;;;5056579;28;20064;-66
2022/11/10 12:37:32;;;;;;;5.97;0.70;;;13.20;99.90;;;;;;5055283;28;20056;-70
2022/11/10 12:40:12;;;;;;;1.98;0.60;;;13.40;99.90;;;;;;5056430;28;20388;-72
2022/11/10 12:42:38;;;;;;;7.13;0.95;;;13.60;99.90;;;;;;5056624;28;20044;-65
2022/11/10 12:45:07;;;;;;;2.17;0.82;;;13.70;99.90;;;;;;5055274;28;20511;-65
2022/11/10 12:47:54;;;;;;;4.65;0.70;;;13.80;99.90;;;;;;5056374;28;20072;-65
2022/11/10 12:50:49;;;;;;;4.28;1.17;;;13.80;99.90;;;;;;5056424;28;20043;-74
2022/11/10 12:53:26;;;;;;;4.90;0.93;;;13.70;99.90;;;;;;5056420;28;20485;-65
2022/11/10 12:56:00;;;;;;;3.90;0.93;;;13.80;99.90;;;;;;5064738;28;20404;-80
2022/11/10 12:58:27;;;;;;;3.30;0.90;;;13.80;99.90;;;;;;5076127;28;20139;-66
2022/11/10 13:01:03;;;;;;;3.22;0.82;;;13.70;99.90;;;;;;5074997;28;20028;-80
2022/11/10 13:03:31;;;;;;;4.65;1.00;;;13.90;99.90;;;;;;5076151;28;20036;-66
2022/11/10 13:06:30;;;;;;;2.13;0.82;;;13.80;99.90;;;;;;5076037;28;20032;-67
2022/11/10 13:08:56;;;;;;;3.47;1.08;;;13.80;99.90;;;;;;5073348;28;20684;-65
2022/11/10 13:11:34;;;;;;;4.28;1.15;;;13.60;99.90;;;;;;5075916;28;20135;-79
2022/11/10 13:14:03;;;;;;;3.20;1.08;;;13.50;99.90;;;;;;5074543;28;20043;-66
2022/11/10 13:16:39;;;;;;;2.83;0.98;;;13.70;99.90;;;;;;5071895;28;20036;-66